Time;durP1;ratioP1;P1;durP2;ratioP2;P2;SDS_P1;SDS_P2;PMS_P1;PMS_P2;Temp;Humidity;BMP_temperature;BMP_pressure;BME280_temperature;BME280_humidity;BME280_pressure;Samples;Min_cycle;Max_cycle;Signal;HPM_P1;HPM_P2
2021/05/12 00:02:17;;;;;;;4.22;3.42;;;;;;;;;;740990;185;918790;-71
2021/05/12 00:04:43;;;;;;;4.25;2.97;;;;;;;;;;748960;184;943040;-70
2021/05/12 00:07:09;;;;;;;4.47;3.43;;;;;;;;;;753789;181;913418;-71
2021/05/12 00:09:35;;;;;;;4.60;3.10;;;;;;;;;;745729;184;919260;-72
2021/05/12 00:12:00;;;;;;;6.00;3.30;;;;;;;;;;744728;185;919231;-72
2021/05/12 00:14:27;;;;;;;3.87;3.10;;;;;;;;;;752255;185;919935;-72
2021/05/12 00:16:53;;;;;;;10.17;4.10;;;;;;;;;;737185;185;2260345;-72
2021/05/12 00:19:19;;;;;;;6.00;3.70;;;;;;;;;;744622;185;918832;-72
2021/05/12 00:21:57;;;;;;;4.53;3.40;;;;;;;;;;746319;186;918341;-73
2021/05/12 00:24:20;;;;;;;6.10;3.87;;;;;;;;;;750371;186;918792;-72
2021/05/12 00:26:46;;;;;;;5.43;4.37;;;;;;;;;;743651;186;922498;-72
2021/05/12 00:29:12;;;;;;;5.63;3.93;;;;;;;;;;741629;186;918766;-72
2021/05/12 00:31:37;;;;;;;4.10;3.17;;;;;;;;;;750635;186;918029;-72
2021/05/12 00:34:04;;;;;;;5.17;3.67;;;;;;;;;;742059;185;918251;-72
2021/05/12 00:36:29;;;;;;;6.20;3.80;;;;;;;;;;743611;186;919103;-73
2021/05/12 00:38:57;;;;;;;4.37;3.73;;;;;;;;;;748329;184;917173;-73
2021/05/12 00:41:21;;;;;;;5.65;3.58;;;;;;;;;;746513;187;920005;-73
2021/05/12 00:43:47;;;;;;;7.40;3.77;;;;;;;;;;748006;184;677312;-73
2021/05/12 00:46:13;;;;;;;6.97;4.30;;;;;;;;;;749808;186;613052;-73
2021/05/12 00:48:39;;;;;;;5.77;4.37;;;;;;;;;;742564;185;916461;-73
2021/05/12 00:51:05;;;;;;;5.57;3.70;;;;;;;;;;747232;187;711327;-74
2021/05/12 00:53:30;;;;;;;7.25;4.15;;;;;;;;;;745416;186;914005;-73
2021/05/12 00:55:56;;;;;;;6.20;4.10;;;;;;;;;;749541;187;925727;-74
2021/05/12 00:58:22;;;;;;;6.20;4.27;;;;;;;;;;740952;185;923213;-74
2021/05/12 01:00:48;;;;;;;7.03;4.50;;;;;;;;;;743387;185;913773;-74
2021/05/12 01:03:14;;;;;;;6.30;4.30;;;;;;;;;;747112;186;915843;-75
2021/05/12 01:05:41;;;;;;;5.85;4.10;;;;;;;;;;743583;187;919484;-73
2021/05/12 01:08:07;;;;;;;7.70;4.37;;;;;;;;;;745220;185;915638;-72
2021/05/12 01:10:33;;;;;;;7.03;4.43;;;;;;;;;;748136;186;857459;-73
2021/05/12 01:12:59;;;;;;;7.33;4.53;;;;;;;;;;745592;184;915324;-75
2021/05/12 01:15:24;;;;;;;5.55;4.37;;;;;;;;;;743215;187;914761;-74
2021/05/12 01:17:50;;;;;;;5.10;4.10;;;;;;;;;;745428;185;916420;-74
2021/05/12 01:20:16;;;;;;;11.60;3.87;;;;;;;;;;748408;185;919051;-74
2021/05/12 01:22:42;;;;;;;6.70;5.00;;;;;;;;;;743321;186;956338;-74
2021/05/12 01:25:09;;;;;;;5.63;4.80;;;;;;;;;;746207;185;1059983;-77
2021/05/12 01:27:34;;;;;;;8.83;5.27;;;;;;;;;;751164;186;912065;-75
2021/05/12 01:30:00;;;;;;;10.83;4.10;;;;;;;;;;745273;185;911688;-75
2021/05/12 01:32:29;;;;;;;5.10;4.35;;;;;;;;;;745420;187;919856;-74
2021/05/12 01:34:52;;;;;;;6.73;5.40;;;;;;;;;;745930;187;918813;-75
2021/05/12 01:37:18;;;;;;;5.87;4.50;;;;;;;;;;744730;186;919158;-75
2021/05/12 01:39:44;;;;;;;5.70;4.90;;;;;;;;;;742062;185;919284;-73
2021/05/12 01:42:10;;;;;;;6.90;4.80;;;;;;;;;;744092;186;920522;-73
2021/05/12 01:44:35;;;;;;;4.73;3.97;;;;;;;;;;749894;187;912398;-72
2021/05/12 01:47:01;;;;;;;5.20;4.10;;;;;;;;;;743115;185;981441;-76
2021/05/12 01:49:29;;;;;;;6.20;5.00;;;;;;;;;;745052;185;912201;-75
2021/05/12 01:51:53;;;;;;;5.80;4.53;;;;;;;;;;748892;187;913225;-74
2021/05/12 01:54:19;;;;;;;6.10;5.10;;;;;;;;;;745791;185;921678;-75
2021/05/12 01:56:45;;;;;;;6.97;5.20;;;;;;;;;;744821;186;888623;-77
2021/05/12 01:59:10;;;;;;;6.97;4.63;;;;;;;;;;748891;186;921298;-75
2021/05/12 02:01:36;;;;;;;6.77;5.43;;;;;;;;;;741237;186;970492;-75
2021/05/12 02:04:03;;;;;;;11.27;5.23;;;;;;;;;;737363;187;1803876;-75
2021/05/12 02:06:29;;;;;;;6.07;5.20;;;;;;;;;;742789;186;884231;-76
2021/05/12 02:08:55;;;;;;;5.83;4.87;;;;;;;;;;752488;184;908807;-76
2021/05/12 02:11:21;;;;;;;8.93;5.73;;;;;;;;;;744251;185;903272;-75
2021/05/12 02:13:47;;;;;;;8.03;4.70;;;;;;;;;;742111;185;918183;-77
2021/05/12 02:16:12;;;;;;;8.93;5.35;;;;;;;;;;747514;186;916249;-77
2021/05/12 02:18:38;;;;;;;5.90;4.70;;;;;;;;;;745388;185;915686;-75
2021/05/12 02:21:06;;;;;;;5.97;4.87;;;;;;;;;;747843;186;919355;-79
2021/05/12 02:23:30;;;;;;;7.20;5.17;;;;;;;;;;751618;184;816924;-76
2021/05/12 02:25:56;;;;;;;6.50;5.03;;;;;;;;;;744367;185;917417;-76
2021/05/12 02:28:22;;;;;;;8.80;5.47;;;;;;;;;;743837;184;919461;-76
2021/05/12 02:30:48;;;;;;;7.60;5.07;;;;;;;;;;749613;187;918722;-77
2021/05/12 02:33:14;;;;;;;5.73;4.80;;;;;;;;;;742330;185;918784;-79
2021/05/12 02:35:39;;;;;;;5.57;4.87;;;;;;;;;;744298;185;919019;-78
2021/05/12 02:38:05;;;;;;;13.30;6.83;;;;;;;;;;743246;186;918687;-76
2021/05/12 02:40:31;;;;;;;6.25;4.90;;;;;;;;;;749466;186;918127;-76
2021/05/12 02:42:57;;;;;;;8.20;5.50;;;;;;;;;;743505;186;918655;-76
2021/05/12 02:45:23;;;;;;;6.10;4.68;;;;;;;;;;743958;187;918753;-77
2021/05/12 02:50:20;;;;;;;6.72;4.97;;;;;;;;;;744987;186;1021461;-77
2021/05/12 02:52:46;;;;;;;6.93;5.53;;;;;;;;;;746618;183;918441;-77
2021/05/12 02:55:12;;;;;;;6.80;5.50;;;;;;;;;;745324;185;919396;-75
2021/05/12 02:57:39;;;;;;;10.37;5.53;;;;;;;;;;749909;185;901959;-77
2021/05/12 03:00:05;;;;;;;7.23;5.23;;;;;;;;;;743454;185;919748;-78
2021/05/12 03:02:31;;;;;;;5.80;5.03;;;;;;;;;;743988;187;919164;-75
2021/05/12 03:04:57;;;;;;;7.50;4.93;;;;;;;;;;747747;185;918054;-75
2021/05/12 03:07:23;;;;;;;7.33;4.47;;;;;;;;;;743019;187;1021203;-77
2021/05/12 03:09:48;;;;;;;6.43;5.27;;;;;;;;;;742907;186;918922;-76
2021/05/12 03:12:14;;;;;;;6.63;5.53;;;;;;;;;;747727;187;917482;-77
2021/05/12 03:14:40;;;;;;;6.93;4.47;;;;;;;;;;742941;184;918746;-81
2021/05/12 03:17:06;;;;;;;13.80;6.73;;;;;;;;;;743613;186;918445;-79
2021/05/12 03:19:32;;;;;;;6.37;5.67;;;;;;;;;;743572;184;917571;-79
2021/05/12 03:21:58;;;;;;;7.50;5.93;;;;;;;;;;746313;187;812297;-76
2021/05/12 03:24:24;;;;;;;7.03;6.03;;;;;;;;;;741611;187;919229;-79
2021/05/12 03:26:49;;;;;;;8.07;6.70;;;;;;;;;;742637;185;989271;-77
2021/05/12 03:29:15;;;;;;;8.97;6.67;;;;;;;;;;748020;185;918436;-77
2021/05/12 03:31:41;;;;;;;10.10;6.00;;;;;;;;;;745189;186;919549;-77
2021/05/12 03:34:09;;;;;;;6.87;5.40;;;;;;;;;;741890;185;1021375;-78
2021/05/12 03:36:35;;;;;;;7.63;6.07;;;;;;;;;;749296;185;900883;-76
2021/05/12 03:39:01;;;;;;;6.93;5.20;;;;;;;;;;747417;186;919721;-75
2021/05/12 03:41:27;;;;;;;9.73;6.63;;;;;;;;;;742440;185;1301282;-76
2021/05/12 03:43:52;;;;;;;9.23;6.90;;;;;;;;;;747152;186;917709;-75
2021/05/12 03:46:18;;;;;;;9.10;5.40;;;;;;;;;;740675;186;918710;-77
2021/05/12 03:48:44;;;;;;;6.73;5.50;;;;;;;;;;743861;186;1015038;-76
2021/05/12 03:51:10;;;;;;;11.03;6.20;;;;;;;;;;745816;186;919008;-75
2021/05/12 03:53:36;;;;;;;8.17;6.40;;;;;;;;;;753791;185;622154;-77
2021/05/12 03:56:02;;;;;;;8.20;6.40;;;;;;;;;;744336;186;917604;-76
2021/05/12 03:58:28;;;;;;;9.80;6.40;;;;;;;;;;744978;185;1020932;-74
2021/05/12 04:00:53;;;;;;;8.40;5.50;;;;;;;;;;744867;185;1473956;-78
2021/05/12 04:03:19;;;;;;;7.40;5.70;;;;;;;;;;743371;186;1038392;-77
2021/05/12 04:05:45;;;;;;;6.90;5.20;;;;;;;;;;742550;186;919124;-75
2021/05/12 04:08:11;;;;;;;7.30;5.87;;;;;;;;;;748257;185;919009;-77
2021/05/12 04:10:37;;;;;;;7.60;5.40;;;;;;;;;;741737;185;919509;-77
2021/05/12 04:13:03;;;;;;;10.20;5.53;;;;;;;;;;743709;186;919211;-72
2021/05/12 04:15:28;;;;;;;9.90;5.80;;;;;;;;;;742894;185;919134;-75
2021/05/12 04:17:54;;;;;;;7.67;5.60;;;;;;;;;;747874;185;919359;-74
2021/05/12 04:20:20;;;;;;;21.43;6.00;;;;;;;;;;744289;187;919285;-76
2021/05/12 04:22:46;;;;;;;25.33;5.97;;;;;;;;;;745668;185;906334;-76
2021/05/12 04:25:13;;;;;;;6.10;5.07;;;;;;;;;;749335;187;921276;-76
2021/05/12 04:27:39;;;;;;;8.33;5.17;;;;;;;;;;742629;186;919165;-76
2021/05/12 04:30:05;;;;;;;11.63;5.90;;;;;;;;;;744066;186;916593;-75
2021/05/12 04:32:31;;;;;;;12.70;8.63;;;;;;;;;;747720;185;918825;-74
2021/05/12 04:34:57;;;;;;;7.60;6.10;;;;;;;;;;743728;185;918711;-73
2021/05/12 04:37:22;;;;;;;10.97;7.20;;;;;;;;;;740474;186;918721;-74
2021/05/12 04:39:48;;;;;;;11.70;6.50;;;;;;;;;;742394;185;918317;-76
2021/05/12 04:42:14;;;;;;;7.47;4.73;;;;;;;;;;749020;186;1022429;-75
2021/05/12 04:44:40;;;;;;;10.27;5.17;;;;;;;;;;745068;185;919982;-73
2021/05/12 04:47:06;;;;;;;12.90;5.23;;;;;;;;;;739012;185;1401943;-74
2021/05/12 04:49:32;;;;;;;9.80;7.10;;;;;;;;;;749925;184;919919;-74
2021/05/12 04:51:58;;;;;;;6.80;5.17;;;;;;;;;;744499;186;1022350;-72
2021/05/12 04:54:23;;;;;;;9.67;6.60;;;;;;;;;;741831;186;918293;-73
2021/05/12 04:56:49;;;;;;;7.80;5.90;;;;;;;;;;749861;185;885304;-74
2021/05/12 04:59:15;;;;;;;7.30;6.37;;;;;;;;;;744143;185;918282;-74
2021/05/12 05:01:41;;;;;;;13.37;6.50;;;;;;;;;;745469;185;915194;-78
2021/05/12 05:04:07;;;;;;;10.37;7.40;;;;;;;;;;747165;186;636817;-74
2021/05/12 05:06:34;;;;;;;11.87;6.47;;;;;;;;;;749214;184;618485;-74
2021/05/12 05:08:59;;;;;;;10.13;7.00;;;;;;;;;;744245;184;1146656;-74
2021/05/12 05:11:24;;;;;;;8.40;5.40;;;;;;;;;;749660;185;643884;-74
2021/05/12 05:13:50;;;;;;;12.30;6.23;;;;;;;;;;749283;186;629440;-74
2021/05/12 05:16:16;;;;;;;8.50;5.30;;;;;;;;;;747796;187;636365;-75
2021/05/12 05:18:42;;;;;;;17.33;5.30;;;;;;;;;;742511;185;941828;-73
2021/05/12 05:21:08;;;;;;;13.10;5.97;;;;;;;;;;748983;186;919953;-74
2021/05/12 05:23:34;;;;;;;9.20;5.60;;;;;;;;;;747690;185;667363;-77
2021/05/12 05:26:00;;;;;;;7.32;4.45;;;;;;;;;;748317;186;918857;-72
2021/05/12 05:28:25;;;;;;;6.23;4.30;;;;;;;;;;750214;186;920113;-71
2021/05/12 05:30:51;;;;;;;8.80;6.40;;;;;;;;;;739361;185;1671613;-71
2021/05/12 05:33:17;;;;;;;13.87;6.33;;;;;;;;;;745386;185;916026;-70
2021/05/12 05:35:43;;;;;;;6.87;4.77;;;;;;;;;;741018;185;915681;-69
2021/05/12 05:38:09;;;;;;;24.07;15.33;;;;;;;;;;748451;185;915950;-72
2021/05/12 05:40:35;;;;;;;9.90;5.97;;;;;;;;;;741140;187;916459;-71
2021/05/12 05:43:03;;;;;;;12.87;7.93;;;;;;;;;;742613;186;916669;-70
2021/05/12 05:45:27;;;;;;;80.68;42.30;;;;;;;;;;746295;186;916881;-72
2021/05/12 05:47:53;;;;;;;13.00;8.03;;;;;;;;;;743601;186;919901;-71
2021/05/12 05:50:18;;;;;;;18.50;9.90;;;;;;;;;;743207;185;909581;-72
2021/05/12 05:52:44;;;;;;;9.87;6.40;;;;;;;;;;748187;186;919067;-73
2021/05/12 05:55:11;;;;;;;4.67;3.97;;;;;;;;;;743199;186;920129;-73
2021/05/12 05:57:37;;;;;;;5.70;4.43;;;;;;;;;;747448;186;935060;-69
2021/05/12 06:00:02;;;;;;;9.27;7.30;;;;;;;;;;740362;185;919273;-69
2021/05/12 06:02:28;;;;;;;6.53;4.33;;;;;;;;;;746546;186;919432;-68
2021/05/12 06:04:55;;;;;;;9.77;8.30;;;;;;;;;;744526;185;920864;-75
2021/05/12 06:07:21;;;;;;;5.70;4.73;;;;;;;;;;746223;184;915854;-70
2021/05/12 06:09:46;;;;;;;6.03;3.97;;;;;;;;;;749500;185;918611;-69
2021/05/12 06:12:12;;;;;;;7.10;4.57;;;;;;;;;;743632;186;919430;-74
2021/05/12 06:14:38;;;;;;;10.40;3.50;;;;;;;;;;745359;183;925587;-70
2021/05/12 06:17:04;;;;;;;6.83;3.87;;;;;;;;;;741253;185;2092382;-68
2021/05/12 06:19:30;;;;;;;8.20;4.47;;;;;;;;;;745526;186;919067;-69
2021/05/12 06:21:56;;;;;;;6.10;4.00;;;;;;;;;;742366;186;919320;-69
2021/05/12 06:24:22;;;;;;;7.30;3.80;;;;;;;;;;748549;185;919942;-69
2021/05/12 06:26:50;;;;;;;4.40;3.50;;;;;;;;;;751480;184;917155;-68
2021/05/12 06:29:14;;;;;;;15.30;8.00;;;;;;;;;;744750;185;943226;-71
2021/05/12 06:31:40;;;;;;;5.87;3.37;;;;;;;;;;741313;186;916255;-69
2021/05/12 06:34:06;;;;;;;9.83;4.37;;;;;;;;;;749598;185;919105;-69
2021/05/12 06:36:32;;;;;;;9.80;4.50;;;;;;;;;;741331;187;1398050;-71
2021/05/12 06:38:57;;;;;;;7.43;4.00;;;;;;;;;;743215;185;923836;-70
2021/05/12 06:41:24;;;;;;;4.93;3.53;;;;;;;;;;745865;187;919659;-70
2021/05/12 06:43:50;;;;;;;10.07;4.20;;;;;;;;;;743065;185;923506;-68
2021/05/12 06:46:16;;;;;;;6.60;4.03;;;;;;;;;;742385;186;919095;-67
2021/05/12 06:48:41;;;;;;;4.10;3.10;;;;;;;;;;747972;185;915903;-70
2021/05/12 06:51:07;;;;;;;5.97;3.13;;;;;;;;;;746260;186;919435;-70
2021/05/12 06:53:33;;;;;;;7.33;3.50;;;;;;;;;;745375;187;620339;-69
2021/05/12 06:55:59;;;;;;;8.57;4.00;;;;;;;;;;749930;185;627803;-70
2021/05/12 06:58:25;;;;;;;15.30;3.77;;;;;;;;;;751606;186;631468;-71
2021/05/12 07:00:51;;;;;;;6.00;3.83;;;;;;;;;;748943;187;622099;-69
2021/05/12 07:03:16;;;;;;;11.73;3.77;;;;;;;;;;745580;186;718193;-68
2021/05/12 07:05:43;;;;;;;8.63;3.30;;;;;;;;;;751112;186;623940;-67
2021/05/12 07:08:08;;;;;;;9.63;3.13;;;;;;;;;;744088;186;629961;-69
2021/05/12 07:10:34;;;;;;;12.83;3.67;;;;;;;;;;747232;187;641267;-67
2021/05/12 07:13:00;;;;;;;5.40;3.77;;;;;;;;;;750203;185;632184;-69
2021/05/12 07:15:26;;;;;;;6.17;3.63;;;;;;;;;;749302;185;617774;-68
2021/05/12 07:17:51;;;;;;;6.10;3.23;;;;;;;;;;746205;185;651267;-71
2021/05/12 07:20:19;;;;;;;7.80;3.33;;;;;;;;;;750652;186;616586;-69
2021/05/12 07:22:43;;;;;;;4.77;2.90;;;;;;;;;;749697;184;615532;-70
2021/05/12 07:25:09;;;;;;;6.03;3.30;;;;;;;;;;747189;185;744839;-70
2021/05/12 07:27:35;;;;;;;4.00;3.13;;;;;;;;;;749592;185;623532;-71
2021/05/12 07:30:01;;;;;;;5.73;3.73;;;;;;;;;;751096;183;619197;-68
2021/05/12 07:32:27;;;;;;;6.67;3.27;;;;;;;;;;746858;187;638334;-70
2021/05/12 07:34:53;;;;;;;6.27;3.30;;;;;;;;;;745995;185;638674;-70
2021/05/12 07:37:18;;;;;;;7.07;3.47;;;;;;;;;;753362;186;617111;-69
2021/05/12 07:39:44;;;;;;;4.30;3.30;;;;;;;;;;750053;185;618116;-69
2021/05/12 07:42:12;;;;;;;6.80;3.20;;;;;;;;;;749521;185;635628;-68
2021/05/12 07:44:36;;;;;;;6.10;3.50;;;;;;;;;;746298;185;1303821;-69
2021/05/12 07:47:02;;;;;;;5.50;3.47;;;;;;;;;;747683;186;623863;-70
2021/05/12 07:49:28;;;;;;;6.10;3.27;;;;;;;;;;745329;184;632486;-68
2021/05/12 07:51:53;;;;;;;7.30;3.80;;;;;;;;;;747183;186;627434;-68
2021/05/12 07:54:19;;;;;;;3.70;2.90;;;;;;;;;;749930;185;623128;-69
2021/05/12 07:56:45;;;;;;;4.97;2.83;;;;;;;;;;747079;187;622677;-67
2021/05/12 07:59:11;;;;;;;4.32;3.50;;;;;;;;;;748303;185;845123;-67
2021/05/12 08:01:41;;;;;;;4.40;3.07;;;;;;;;;;749834;186;623078;-69
2021/05/12 08:04:03;;;;;;;6.30;3.47;;;;;;;;;;748172;185;630681;-69
2021/05/12 08:06:29;;;;;;;5.63;2.70;;;;;;;;;;747966;184;634410;-67
2021/05/12 08:08:54;;;;;;;5.93;3.10;;;;;;;;;;751091;185;635701;-69
2021/05/12 08:11:21;;;;;;;12.03;3.37;;;;;;;;;;745501;186;613947;-70
2021/05/12 08:13:46;;;;;;;5.17;3.20;;;;;;;;;;747368;184;624472;-69
2021/05/12 08:16:12;;;;;;;5.73;3.03;;;;;;;;;;746029;185;618584;-68
2021/05/12 08:18:38;;;;;;;5.97;2.80;;;;;;;;;;755575;184;620988;-70
2021/05/12 08:21:05;;;;;;;4.83;2.80;;;;;;;;;;745005;187;613915;-69
2021/05/12 08:23:29;;;;;;;6.23;3.60;;;;;;;;;;748519;184;643154;-68
2021/05/12 08:25:55;;;;;;;4.90;3.60;;;;;;;;;;753569;185;616599;-68
2021/05/12 08:28:22;;;;;;;4.43;2.63;;;;;;;;;;750434;184;629821;-69
2021/05/12 08:30:47;;;;;;;6.13;3.30;;;;;;;;;;748272;185;657546;-68
2021/05/12 08:33:13;;;;;;;5.40;2.90;;;;;;;;;;756208;184;630555;-70
2021/05/12 08:35:40;;;;;;;8.47;4.20;;;;;;;;;;749227;186;644522;-69
2021/05/12 08:38:05;;;;;;;4.93;3.10;;;;;;;;;;746859;185;629208;-70
2021/05/12 08:40:31;;;;;;;4.63;3.00;;;;;;;;;;751503;186;616410;-68
2021/05/12 08:42:57;;;;;;;10.18;3.17;;;;;;;;;;746434;185;632652;-69
2021/05/12 08:45:23;;;;;;;8.23;3.50;;;;;;;;;;748037;187;624080;-69
2021/05/12 08:47:54;;;;;;;5.23;3.00;;;;;;;;;;745721;187;665555;-69
2021/05/12 08:50:15;;;;;;;5.80;3.93;;;;;;;;;;752913;186;614617;-66
2021/05/12 08:52:40;;;;;;;9.63;3.13;;;;;;;;;;747163;185;640503;-67
2021/05/12 08:55:07;;;;;;;8.83;2.80;;;;;;;;;;748787;186;629823;-68
2021/05/12 08:57:32;;;;;;;5.47;3.43;;;;;;;;;;749374;185;616464;-67
2021/05/12 08:59:58;;;;;;;6.70;3.80;;;;;;;;;;746735;185;630230;-67
2021/05/12 09:02:24;;;;;;;3.90;3.17;;;;;;;;;;748056;185;631154;-67
2021/05/12 09:04:50;;;;;;;7.27;3.30;;;;;;;;;;752968;184;631672;-67
2021/05/12 09:07:16;;;;;;;5.10;2.83;;;;;;;;;;745346;186;635930;-67
2021/05/12 09:09:42;;;;;;;3.80;3.10;;;;;;;;;;747504;187;624589;-67
2021/05/12 09:12:12;;;;;;;6.03;3.37;;;;;;;;;;738625;188;1303682;-68
2021/05/12 09:14:36;;;;;;;3.90;3.20;;;;;;;;;;739186;186;705483;-68
2021/05/12 09:17:01;;;;;;;9.73;4.20;;;;;;;;;;748327;185;628355;-66
2021/05/12 09:19:27;;;;;;;4.90;3.23;;;;;;;;;;745155;185;687510;-66
2021/05/12 09:21:53;;;;;;;7.10;3.00;;;;;;;;;;751753;187;629689;-68
2021/05/12 09:24:19;;;;;;;4.53;2.70;;;;;;;;;;746102;186;625613;-68
2021/05/12 09:26:46;;;;;;;4.37;2.83;;;;;;;;;;747560;187;633340;-69
2021/05/12 09:29:12;;;;;;;5.27;3.40;;;;;;;;;;750193;184;620745;-68
2021/05/12 09:31:38;;;;;;;9.07;3.10;;;;;;;;;;748898;185;627524;-69
2021/05/12 09:34:11;;;;;;;5.30;3.77;;;;;;;;;;747093;186;628954;-67
2021/05/12 09:36:30;;;;;;;5.53;3.73;;;;;;;;;;749801;186;641256;-67
2021/05/12 09:38:55;;;;;;;4.10;3.20;;;;;;;;;;750902;185;649744;-67
2021/05/12 09:41:23;;;;;;;8.00;3.40;;;;;;;;;;748887;185;625517;-67
2021/05/12 09:43:49;;;;;;;4.70;3.00;;;;;;;;;;747292;185;633502;-66
2021/05/12 09:46:17;;;;;;;4.20;3.03;;;;;;;;;;753197;185;633672;-67
2021/05/12 09:48:46;;;;;;;4.60;3.03;;;;;;;;;;746389;186;617803;-69
2021/05/12 09:51:15;;;;;;;4.17;3.13;;;;;;;;;;748236;187;632475;-67
2021/05/12 09:53:41;;;;;;;6.70;2.70;;;;;;;;;;747763;185;633294;-67
2021/05/12 09:56:06;;;;;;;4.73;2.90;;;;;;;;;;752016;186;626464;-68
2021/05/12 09:58:32;;;;;;;11.33;4.17;;;;;;;;;;751304;185;629695;-65
2021/05/12 10:00:58;;;;;;;4.97;3.33;;;;;;;;;;744135;184;1497779;-67
2021/05/12 10:03:24;;;;;;;5.50;2.50;;;;;;;;;;751373;185;622192;-67
2021/05/12 10:05:52;;;;;;;6.80;2.83;;;;;;;;;;745243;188;619666;-66
2021/05/12 10:08:19;;;;;;;3.70;3.00;;;;;;;;;;750094;184;617171;-67
2021/05/12 10:10:45;;;;;;;4.37;3.00;;;;;;;;;;746887;186;620468;-67
2021/05/12 10:13:11;;;;;;;4.87;3.10;;;;;;;;;;755263;184;617313;-67
2021/05/12 10:15:37;;;;;;;3.17;2.87;;;;;;;;;;745227;187;626522;-68
2021/05/12 10:18:02;;;;;;;4.60;3.27;;;;;;;;;;746923;186;632371;-67
2021/05/12 10:20:28;;;;;;;6.83;3.77;;;;;;;;;;738074;185;2930707;-67
2021/05/12 10:22:56;;;;;;;3.90;3.13;;;;;;;;;;749694;186;633185;-66
2021/05/12 10:25:20;;;;;;;4.33;3.17;;;;;;;;;;749064;185;630951;-67
2021/05/12 10:27:46;;;;;;;3.90;2.67;;;;;;;;;;748867;187;980920;-66
2021/05/12 10:30:13;;;;;;;4.63;3.03;;;;;;;;;;745643;187;640328;-70
2021/05/12 10:32:40;;;;;;;8.10;3.67;;;;;;;;;;746943;185;649173;-68
2021/05/12 10:35:06;;;;;;;6.80;3.30;;;;;;;;;;746977;185;623495;-69
2021/05/12 10:37:31;;;;;;;7.27;3.60;;;;;;;;;;746495;187;614449;-70
2021/05/12 10:40:00;;;;;;;8.90;3.63;;;;;;;;;;747285;186;639040;-70
2021/05/12 10:42:30;;;;;;;5.90;3.80;;;;;;;;;;746195;185;620972;-69
2021/05/12 10:44:56;;;;;;;10.00;4.53;;;;;;;;;;751238;187;633148;-67
2021/05/12 10:47:22;;;;;;;13.43;3.63;;;;;;;;;;749093;185;632600;-70
2021/05/12 10:49:50;;;;;;;7.47;4.00;;;;;;;;;;751248;184;623096;-71
2021/05/12 10:52:15;;;;;;;8.03;3.60;;;;;;;;;;748290;185;624108;-68
2021/05/12 10:54:42;;;;;;;7.67;3.77;;;;;;;;;;752310;185;635429;-69
2021/05/12 10:57:07;;;;;;;5.07;3.70;;;;;;;;;;745973;185;622172;-68
2021/05/12 10:59:33;;;;;;;6.07;3.50;;;;;;;;;;748914;184;626825;-68
2021/05/12 11:01:59;;;;;;;4.50;3.53;;;;;;;;;;751226;186;634577;-69
2021/05/12 11:04:25;;;;;;;7.90;4.00;;;;;;;;;;747981;186;623715;-69
2021/05/12 11:06:54;;;;;;;8.00;4.50;;;;;;;;;;746252;186;723378;-69
2021/05/12 11:09:22;;;;;;;9.70;4.70;;;;;;;;;;749913;185;636978;-67
2021/05/12 11:12:01;;;;;;;7.33;4.17;;;;;;;;;;746338;185;628110;-68
2021/05/12 11:14:28;;;;;;;5.30;3.83;;;;;;;;;;745245;185;636908;-68
2021/05/12 11:16:59;;;;;;;5.77;3.77;;;;;;;;;;748351;186;618491;-68
2021/05/12 11:19:31;;;;;;;7.73;3.97;;;;;;;;;;747222;186;628875;-70
2021/05/12 11:21:57;;;;;;;5.40;3.85;;;;;;;;;;751518;186;625934;-69
2021/05/12 11:24:23;;;;;;;7.17;4.00;;;;;;;;;;754451;184;635615;-69
2021/05/12 11:27:01;;;;;;;6.80;3.70;;;;;;;;;;748688;184;640478;-68
2021/05/12 11:31:49;;;;;;;4.50;3.60;;;;;;;;;;750613;187;642906;-70
2021/05/12 11:34:15;;;;;;;5.20;3.70;;;;;;;;;;745076;186;634326;-68
2021/05/12 11:36:41;;;;;;;4.17;3.70;;;;;;;;;;747410;186;630048;-68
2021/05/12 11:39:07;;;;;;;8.10;4.60;;;;;;;;;;745628;184;626391;-67
2021/05/12 11:41:33;;;;;;;4.97;3.97;;;;;;;;;;751811;185;695696;-66
2021/05/12 11:44:00;;;;;;;4.80;4.20;;;;;;;;;;743646;185;727965;-68
2021/05/12 11:46:27;;;;;;;5.53;4.93;;;;;;;;;;748038;186;630509;-67
2021/05/12 11:48:53;;;;;;;8.17;4.00;;;;;;;;;;748762;184;631384;-69
2021/05/12 11:51:26;;;;;;;6.30;5.03;;;;;;;;;;747631;185;633882;-69
2021/05/12 11:53:53;;;;;;;5.67;5.07;;;;;;;;;;745576;185;627072;-68
2021/05/12 11:56:17;;;;;;;9.43;4.67;;;;;;;;;;747662;186;625587;-68
2021/05/12 11:58:48;;;;;;;6.43;4.70;;;;;;;;;;751484;186;634104;-68
2021/05/12 12:01:14;;;;;;;6.90;4.97;;;;;;;;;;751476;186;617413;-68
2021/05/12 12:03:44;;;;;;;7.57;5.10;;;;;;;;;;750498;185;623043;-69
2021/05/12 12:06:06;;;;;;;9.97;5.10;;;;;;;;;;748989;186;638647;-68
2021/05/12 12:08:31;;;;;;;7.43;5.80;;;;;;;;;;748500;185;634014;-69
2021/05/12 12:11:03;;;;;;;7.40;5.63;;;;;;;;;;745493;186;672722;-68
2021/05/12 12:13:29;;;;;;;11.83;5.73;;;;;;;;;;749520;185;623215;-67
2021/05/12 12:15:55;;;;;;;8.17;5.10;;;;;;;;;;748841;185;697431;-68
2021/05/12 12:18:27;;;;;;;10.83;5.83;;;;;;;;;;749374;185;627256;-67
2021/05/12 12:20:53;;;;;;;6.57;5.50;;;;;;;;;;746062;186;627610;-69
2021/05/12 12:23:25;;;;;;;8.90;5.20;;;;;;;;;;749640;185;634463;-69
2021/05/12 12:25:56;;;;;;;6.83;5.03;;;;;;;;;;748476;186;615497;-66
2021/05/12 12:28:22;;;;;;;8.70;5.10;;;;;;;;;;747285;185;783574;-67
2021/05/12 12:30:48;;;;;;;6.00;4.90;;;;;;;;;;745923;186;629491;-66
2021/05/12 12:33:14;;;;;;;12.47;4.93;;;;;;;;;;747243;185;620519;-68
2021/05/12 12:35:40;;;;;;;6.87;4.37;;;;;;;;;;747439;185;734658;-68
2021/05/12 12:38:11;;;;;;;8.33;4.97;;;;;;;;;;748728;186;616622;-69
2021/05/12 12:40:37;;;;;;;10.80;5.30;;;;;;;;;;746137;185;639168;-68
2021/05/12 12:43:03;;;;;;;7.67;5.00;;;;;;;;;;752993;185;623669;-69
2021/05/12 12:45:33;;;;;;;5.17;4.27;;;;;;;;;;750452;186;631624;-67
2021/05/12 12:47:58;;;;;;;6.60;4.50;;;;;;;;;;748545;186;710188;-67
2021/05/12 12:50:23;;;;;;;6.23;4.50;;;;;;;;;;748518;186;624547;-67
2021/05/12 12:52:49;;;;;;;10.70;6.13;;;;;;;;;;740421;185;628917;-67
2021/05/12 12:55:15;;;;;;;5.87;4.13;;;;;;;;;;747020;187;633410;-68
2021/05/12 12:57:43;;;;;;;6.30;4.30;;;;;;;;;;740318;185;1639374;-68
2021/05/12 13:00:10;;;;;;;8.70;5.07;;;;;;;;;;751781;185;629861;-67
2021/05/12 13:02:37;;;;;;;5.40;4.57;;;;;;;;;;747902;186;660506;-67
2021/05/12 13:05:10;;;;;;;9.17;4.60;;;;;;;;;;748076;186;634779;-67
2021/05/12 13:07:36;;;;;;;6.43;5.50;;;;;;;;;;746184;185;625690;-67
2021/05/12 13:10:07;;;;;;;6.40;4.20;;;;;;;;;;751509;185;628519;-67
2021/05/12 13:12:33;;;;;;;5.50;4.80;;;;;;;;;;747652;186;632531;-67
2021/05/12 13:14:59;;;;;;;4.30;3.63;;;;;;;;;;748781;185;695149;-70
2021/05/12 13:17:29;;;;;;;5.23;3.63;;;;;;;;;;746678;186;638388;-68
2021/05/12 13:19:51;;;;;;;6.47;4.20;;;;;;;;;;756248;183;619000;-67
2021/05/12 13:22:16;;;;;;;5.13;4.40;;;;;;;;;;746738;186;672861;-68
2021/05/12 13:24:42;;;;;;;5.70;4.40;;;;;;;;;;749253;185;632002;-68
2021/05/12 13:27:08;;;;;;;6.73;4.00;;;;;;;;;;754751;186;621499;-67
2021/05/12 13:29:35;;;;;;;9.00;3.90;;;;;;;;;;749225;185;628740;-68
2021/05/12 13:32:03;;;;;;;10.30;5.10;;;;;;;;;;748748;186;635021;-67
2021/05/12 13:34:29;;;;;;;6.63;5.07;;;;;;;;;;749527;185;624264;-68
2021/05/12 13:36:55;;;;;;;4.13;3.73;;;;;;;;;;747309;186;634455;-69
2021/05/12 13:39:19;;;;;;;7.63;4.30;;;;;;;;;;746179;187;626274;-68
2021/05/12 13:41:45;;;;;;;5.57;4.00;;;;;;;;;;752172;185;623384;-68
2021/05/12 13:44:12;;;;;;;12.80;4.90;;;;;;;;;;746166;185;650611;-67
2021/05/12 13:46:37;;;;;;;5.80;4.47;;;;;;;;;;747461;185;627515;-68
2021/05/12 13:49:03;;;;;;;7.03;4.10;;;;;;;;;;744405;185;635367;-66
2021/05/12 13:51:31;;;;;;;6.60;3.97;;;;;;;;;;751984;186;628459;-68
2021/05/12 13:54:00;;;;;;;5.70;4.17;;;;;;;;;;746794;183;641393;-66
2021/05/12 13:56:42;;;;;;;5.13;4.00;;;;;;;;;;749260;185;622852;-68
2021/05/12 13:59:21;;;;;;;7.20;4.30;;;;;;;;;;746690;185;636015;-67
2021/05/12 14:04:09;;;;;;;8.23;4.90;;;;;;;;;;741572;184;1315849;-65
2021/05/12 14:06:35;;;;;;;5.70;4.33;;;;;;;;;;744135;188;634337;-68
2021/05/12 14:09:37;;;;;;;7.35;4.43;;;;;;;;;;737175;188;645947;-69
2021/05/12 14:11:47;;;;;;;4.73;4.20;;;;;;;;;;717150;194;623575;-67
2021/05/12 14:14:20;;;;;;;8.07;4.13;;;;;;;;;;741191;187;625284;-69
2021/05/12 14:16:45;;;;;;;6.00;4.03;;;;;;;;;;718197;194;733284;-67
2021/05/12 14:19:04;;;;;;;5.73;4.40;;;;;;;;;;741935;187;623107;-70
2021/05/12 14:21:29;;;;;;;8.00;4.53;;;;;;;;;;747633;186;623614;-68
2021/05/12 14:23:55;;;;;;;5.70;4.50;;;;;;;;;;752340;184;634909;-67
2021/05/12 14:26:21;;;;;;;10.87;5.10;;;;;;;;;;747080;184;617058;-67
2021/05/12 14:28:54;;;;;;;8.80;4.25;;;;;;;;;;749468;186;797322;-68